sensor_id;sensor_type;location;lat;lon;timestamp;P1;durP1;ratioP1;P2;durP2;ratioP2
2944;SDS011;1482;51.398;7.128;2024-03-02T00:00:13;2.93;;;1.80;;
2944;SDS011;1482;51.398;7.128;2024-03-02T00:05:14;2.13;;;1.93;;
2944;SDS011;1482;51.398;7.128;2024-03-02T00:07:41;2.00;;;1.80;;
2944;SDS011;1482;51.398;7.128;2024-03-02T00:10:08;2.57;;;1.97;;
2944;SDS011;1482;51.398;7.128;2024-03-02T00:12:35;3.20;;;1.83;;
2944;SDS011;1482;51.398;7.128;2024-03-02T00:15:04;2.53;;;2.33;;
2944;SDS011;1482;51.398;7.128;2024-03-02T00:17:53;1.70;;;1.60;;
2944;SDS011;1482;51.398;7.128;2024-03-02T00:20:21;1.67;;;1.57;;
2944;SDS011;1482;51.398;7.128;2024-03-02T00:22:48;5.87;;;1.67;;
2944;SDS011;1482;51.398;7.128;2024-03-02T00:25:14;3.33;;;1.97;;
2944;SDS011;1482;51.398;7.128;2024-03-02T00:27:39;5.77;;;2.47;;
2944;SDS011;1482;51.398;7.128;2024-03-02T00:33:15;1.87;;;1.70;;
2944;SDS011;1482;51.398;7.128;2024-03-02T00:35:43;2.20;;;1.47;;
2944;SDS011;1482;51.398;7.128;2024-03-02T00:38:09;1.93;;;1.40;;
2944;SDS011;1482;51.398;7.128;2024-03-02T00:40:35;2.53;;;1.83;;
2944;SDS011;1482;51.398;7.128;2024-03-02T00:43:01;3.37;;;1.47;;
2944;SDS011;1482;51.398;7.128;2024-03-02T00:45:28;6.23;;;1.60;;
2944;SDS011;1482;51.398;7.128;2024-03-02T00:47:54;1.93;;;1.40;;
2944;SDS011;1482;51.398;7.128;2024-03-02T00:50:20;3.10;;;1.50;;
2944;SDS011;1482;51.398;7.128;2024-03-02T00:52:46;3.20;;;1.70;;
2944;SDS011;1482;51.398;7.128;2024-03-02T00:55:13;8.33;;;1.90;;
2944;SDS011;1482;51.398;7.128;2024-03-02T00:57:39;1.50;;;1.40;;
2944;SDS011;1482;51.398;7.128;2024-03-02T01:00:05;4.70;;;1.67;;
2944;SDS011;1482;51.398;7.128;2024-03-02T01:02:34;2.13;;;1.50;;
2944;SDS011;1482;51.398;7.128;2024-03-02T01:05:00;2.50;;;1.73;;
2944;SDS011;1482;51.398;7.128;2024-03-02T01:07:25;1.43;;;1.33;;
2944;SDS011;1482;51.398;7.128;2024-03-02T01:09:51;1.93;;;1.50;;
2944;SDS011;1482;51.398;7.128;2024-03-02T01:12:17;1.97;;;1.53;;
2944;SDS011;1482;51.398;7.128;2024-03-02T01:14:42;2.00;;;1.30;;
2944;SDS011;1482;51.398;7.128;2024-03-02T01:17:08;5.10;;;1.70;;
2944;SDS011;1482;51.398;7.128;2024-03-02T01:19:33;2.03;;;1.67;;
2944;SDS011;1482;51.398;7.128;2024-03-02T01:21:59;2.07;;;1.43;;
2944;SDS011;1482;51.398;7.128;2024-03-02T01:24:24;2.17;;;1.40;;
2944;SDS011;1482;51.398;7.128;2024-03-02T01:26:50;2.70;;;1.60;;
2944;SDS011;1482;51.398;7.128;2024-03-02T01:29:15;2.87;;;1.87;;
2944;SDS011;1482;51.398;7.128;2024-03-02T01:31:41;1.80;;;1.30;;
2944;SDS011;1482;51.398;7.128;2024-03-02T01:34:10;2.20;;;1.40;;
2944;SDS011;1482;51.398;7.128;2024-03-02T01:36:37;3.17;;;1.50;;
2944;SDS011;1482;51.398;7.128;2024-03-02T01:39:02;3.80;;;1.80;;
2944;SDS011;1482;51.398;7.128;2024-03-02T01:41:28;2.80;;;1.20;;
2944;SDS011;1482;51.398;7.128;2024-03-02T01:43:54;3.80;;;2.20;;
2944;SDS011;1482;51.398;7.128;2024-03-02T01:46:19;4.73;;;1.50;;
2944;SDS011;1482;51.398;7.128;2024-03-02T01:48:45;3.10;;;1.70;;
2944;SDS011;1482;51.398;7.128;2024-03-02T01:51:10;3.73;;;1.70;;
2944;SDS011;1482;51.398;7.128;2024-03-02T01:53:36;3.30;;;1.40;;
2944;SDS011;1482;51.398;7.128;2024-03-02T01:56:02;4.00;;;1.50;;
2944;SDS011;1482;51.398;7.128;2024-03-02T01:58:28;3.20;;;1.30;;
2944;SDS011;1482;51.398;7.128;2024-03-02T02:00:53;3.53;;;1.30;;
2944;SDS011;1482;51.398;7.128;2024-03-02T02:03:19;3.47;;;1.77;;
2944;SDS011;1482;51.398;7.128;2024-03-02T02:05:44;2.60;;;1.10;;
2944;SDS011;1482;51.398;7.128;2024-03-02T02:08:12;3.80;;;1.53;;
2944;SDS011;1482;51.398;7.128;2024-03-02T02:10:37;3.70;;;1.60;;
2944;SDS011;1482;51.398;7.128;2024-03-02T02:13:03;4.17;;;2.00;;
2944;SDS011;1482;51.398;7.128;2024-03-02T02:15:29;4.20;;;1.73;;
2944;SDS011;1482;51.398;7.128;2024-03-02T02:17:55;4.50;;;1.47;;
2944;SDS011;1482;51.398;7.128;2024-03-02T02:20:22;3.37;;;1.50;;
2944;SDS011;1482;51.398;7.128;2024-03-02T02:22:58;2.67;;;1.47;;
2944;SDS011;1482;51.398;7.128;2024-03-02T02:25:28;3.93;;;1.70;;
2944;SDS011;1482;51.398;7.128;2024-03-02T02:27:54;7.33;;;1.93;;
2944;SDS011;1482;51.398;7.128;2024-03-02T02:30:21;4.30;;;1.43;;
2944;SDS011;1482;51.398;7.128;2024-03-02T02:32:48;3.80;;;1.33;;
2944;SDS011;1482;51.398;7.128;2024-03-02T02:35:14;8.70;;;2.73;;
2944;SDS011;1482;51.398;7.128;2024-03-02T02:37:39;4.30;;;1.50;;
2944;SDS011;1482;51.398;7.128;2024-03-02T02:40:06;3.57;;;1.97;;
2944;SDS011;1482;51.398;7.128;2024-03-02T02:42:32;4.47;;;1.73;;
2944;SDS011;1482;51.398;7.128;2024-03-02T02:44:58;5.27;;;1.80;;
2944;SDS011;1482;51.398;7.128;2024-03-02T02:47:23;4.73;;;1.57;;
2944;SDS011;1482;51.398;7.128;2024-03-02T02:49:49;4.80;;;1.47;;
2944;SDS011;1482;51.398;7.128;2024-03-02T02:52:14;4.43;;;1.47;;
2944;SDS011;1482;51.398;7.128;2024-03-02T02:54:40;3.90;;;1.77;;
2944;SDS011;1482;51.398;7.128;2024-03-02T02:57:05;3.53;;;1.53;;
2944;SDS011;1482;51.398;7.128;2024-03-02T02:59:31;5.47;;;1.30;;
2944;SDS011;1482;51.398;7.128;2024-03-02T03:01:56;2.40;;;1.20;;
2944;SDS011;1482;51.398;7.128;2024-03-02T03:04:22;4.57;;;1.80;;
2944;SDS011;1482;51.398;7.128;2024-03-02T03:06:47;3.50;;;2.03;;
2944;SDS011;1482;51.398;7.128;2024-03-02T03:09:13;3.20;;;1.37;;
2944;SDS011;1482;51.398;7.128;2024-03-02T03:11:38;4.47;;;1.60;;
2944;SDS011;1482;51.398;7.128;2024-03-02T03:14:04;4.80;;;1.60;;
2944;SDS011;1482;51.398;7.128;2024-03-02T03:16:30;3.27;;;1.30;;
2944;SDS011;1482;51.398;7.128;2024-03-02T03:18:55;2.63;;;1.30;;
2944;SDS011;1482;51.398;7.128;2024-03-02T03:21:21;2.63;;;1.33;;
2944;SDS011;1482;51.398;7.128;2024-03-02T03:23:46;3.40;;;1.37;;
2944;SDS011;1482;51.398;7.128;2024-03-02T03:26:12;3.30;;;1.40;;
2944;SDS011;1482;51.398;7.128;2024-03-02T03:28:38;5.80;;;1.93;;
2944;SDS011;1482;51.398;7.128;2024-03-02T03:31:03;4.00;;;1.77;;
2944;SDS011;1482;51.398;7.128;2024-03-02T03:33:29;3.73;;;1.47;;
2944;SDS011;1482;51.398;7.128;2024-03-02T03:35:55;6.27;;;1.67;;
2944;SDS011;1482;51.398;7.128;2024-03-02T03:38:20;4.03;;;1.70;;
2944;SDS011;1482;51.398;7.128;2024-03-02T03:40:46;6.07;;;1.57;;
2944;SDS011;1482;51.398;7.128;2024-03-02T03:43:12;5.23;;;1.50;;
2944;SDS011;1482;51.398;7.128;2024-03-02T03:45:38;5.03;;;2.17;;
2944;SDS011;1482;51.398;7.128;2024-03-02T03:48:03;6.40;;;1.60;;
2944;SDS011;1482;51.398;7.128;2024-03-02T03:50:29;4.10;;;1.87;;
2944;SDS011;1482;51.398;7.128;2024-03-02T03:52:54;4.23;;;1.40;;
2944;SDS011;1482;51.398;7.128;2024-03-02T03:55:20;7.13;;;1.60;;
2944;SDS011;1482;51.398;7.128;2024-03-02T03:57:46;3.50;;;1.53;;
2944;SDS011;1482;51.398;7.128;2024-03-02T04:00:11;4.30;;;1.37;;
2944;SDS011;1482;51.398;7.128;2024-03-02T04:02:37;4.03;;;1.80;;
2944;SDS011;1482;51.398;7.128;2024-03-02T04:05:03;3.50;;;1.20;;
2944;SDS011;1482;51.398;7.128;2024-03-02T04:07:33;5.13;;;1.80;;
2944;SDS011;1482;51.398;7.128;2024-03-02T04:10:05;3.57;;;1.60;;
2944;SDS011;1482;51.398;7.128;2024-03-02T04:12:37;4.47;;;2.03;;
2944;SDS011;1482;51.398;7.128;2024-03-02T04:15:04;5.93;;;1.70;;
2944;SDS011;1482;51.398;7.128;2024-03-02T04:17:31;3.60;;;1.60;;
2944;SDS011;1482;51.398;7.128;2024-03-02T04:19:58;4.50;;;1.70;;
2944;SDS011;1482;51.398;7.128;2024-03-02T04:22:24;2.97;;;1.30;;
2944;SDS011;1482;51.398;7.128;2024-03-02T04:24:50;3.20;;;1.30;;
2944;SDS011;1482;51.398;7.128;2024-03-02T04:27:16;6.20;;;1.67;;
2944;SDS011;1482;51.398;7.128;2024-03-02T04:29:41;4.00;;;1.63;;
2944;SDS011;1482;51.398;7.128;2024-03-02T04:32:07;5.30;;;1.70;;
2944;SDS011;1482;51.398;7.128;2024-03-02T04:34:32;3.77;;;1.97;;
2944;SDS011;1482;51.398;7.128;2024-03-02T04:36:58;6.10;;;1.60;;
2944;SDS011;1482;51.398;7.128;2024-03-02T04:39:23;4.20;;;2.00;;
2944;SDS011;1482;51.398;7.128;2024-03-02T04:41:49;3.03;;;1.27;;
2944;SDS011;1482;51.398;7.128;2024-03-02T04:44:15;4.97;;;1.27;;
2944;SDS011;1482;51.398;7.128;2024-03-02T04:46:40;2.90;;;1.60;;
2944;SDS011;1482;51.398;7.128;2024-03-02T04:49:06;5.33;;;1.40;;
2944;SDS011;1482;51.398;7.128;2024-03-02T04:51:31;3.60;;;1.87;;
2944;SDS011;1482;51.398;7.128;2024-03-02T04:53:57;3.60;;;2.00;;
2944;SDS011;1482;51.398;7.128;2024-03-02T04:56:23;4.97;;;1.70;;
2944;SDS011;1482;51.398;7.128;2024-03-02T04:59:04;2.77;;;1.47;;
2944;SDS011;1482;51.398;7.128;2024-03-02T05:01:31;3.23;;;1.90;;
2944;SDS011;1482;51.398;7.128;2024-03-02T05:03:57;1.90;;;1.40;;
2944;SDS011;1482;51.398;7.128;2024-03-02T05:06:22;2.83;;;2.00;;
2944;SDS011;1482;51.398;7.128;2024-03-02T05:08:48;3.93;;;1.90;;
2944;SDS011;1482;51.398;7.128;2024-03-02T05:11:14;4.30;;;2.27;;
2944;SDS011;1482;51.398;7.128;2024-03-02T05:14:15;2.23;;;1.53;;
2944;SDS011;1482;51.398;7.128;2024-03-02T05:16:40;3.60;;;1.50;;
2944;SDS011;1482;51.398;7.128;2024-03-02T05:19:09;4.07;;;1.70;;
2944;SDS011;1482;51.398;7.128;2024-03-02T05:21:34;1.97;;;1.70;;
2944;SDS011;1482;51.398;7.128;2024-03-02T05:24:00;5.77;;;1.83;;
2944;SDS011;1482;51.398;7.128;2024-03-02T05:26:26;2.20;;;1.47;;
2944;SDS011;1482;51.398;7.128;2024-03-02T05:28:51;3.37;;;1.70;;
2944;SDS011;1482;51.398;7.128;2024-03-02T05:31:17;22.87;;;2.17;;
2944;SDS011;1482;51.398;7.128;2024-03-02T05:33:43;1.40;;;1.13;;
2944;SDS011;1482;51.398;7.128;2024-03-02T05:36:09;5.73;;;2.27;;
2944;SDS011;1482;51.398;7.128;2024-03-02T05:38:34;3.00;;;1.90;;
2944;SDS011;1482;51.398;7.128;2024-03-02T05:41:00;2.67;;;1.50;;
2944;SDS011;1482;51.398;7.128;2024-03-02T05:43:26;4.00;;;2.30;;
2944;SDS011;1482;51.398;7.128;2024-03-02T05:45:52;3.77;;;2.20;;
2944;SDS011;1482;51.398;7.128;2024-03-02T05:48:17;1.77;;;1.60;;
2944;SDS011;1482;51.398;7.128;2024-03-02T05:50:43;2.60;;;1.90;;
2944;SDS011;1482;51.398;7.128;2024-03-02T05:53:08;2.30;;;2.10;;
2944;SDS011;1482;51.398;7.128;2024-03-02T05:55:34;2.07;;;1.83;;
2944;SDS011;1482;51.398;7.128;2024-03-02T05:57:59;3.20;;;1.90;;
2944;SDS011;1482;51.398;7.128;2024-03-02T06:00:31;2.67;;;2.00;;
2944;SDS011;1482;51.398;7.128;2024-03-02T06:02:57;4.33;;;2.27;;
2944;SDS011;1482;51.398;7.128;2024-03-02T06:05:23;5.80;;;2.00;;
2944;SDS011;1482;51.398;7.128;2024-03-02T06:07:49;3.30;;;2.00;;
2944;SDS011;1482;51.398;7.128;2024-03-02T06:10:15;3.97;;;2.10;;
2944;SDS011;1482;51.398;7.128;2024-03-02T06:12:41;2.03;;;1.70;;
2944;SDS011;1482;51.398;7.128;2024-03-02T06:15:07;3.80;;;2.40;;
2944;SDS011;1482;51.398;7.128;2024-03-02T06:17:34;3.27;;;2.40;;
2944;SDS011;1482;51.398;7.128;2024-03-02T06:20:00;2.40;;;2.13;;
2944;SDS011;1482;51.398;7.128;2024-03-02T06:22:26;4.07;;;2.50;;
2944;SDS011;1482;51.398;7.128;2024-03-02T06:24:51;3.93;;;2.83;;
2944;SDS011;1482;51.398;7.128;2024-03-02T06:27:17;4.43;;;2.50;;
2944;SDS011;1482;51.398;7.128;2024-03-02T06:29:42;2.30;;;2.10;;
2944;SDS011;1482;51.398;7.128;2024-03-02T06:32:08;3.03;;;2.63;;
2944;SDS011;1482;51.398;7.128;2024-03-02T06:34:33;3.50;;;3.20;;
2944;SDS011;1482;51.398;7.128;2024-03-02T06:36:59;4.80;;;2.80;;
2944;SDS011;1482;51.398;7.128;2024-03-02T06:39:24;4.50;;;2.67;;
2944;SDS011;1482;51.398;7.128;2024-03-02T06:41:50;4.23;;;2.37;;
2944;SDS011;1482;51.398;7.128;2024-03-02T06:44:16;3.83;;;2.30;;
2944;SDS011;1482;51.398;7.128;2024-03-02T06:46:42;3.10;;;2.53;;
2944;SDS011;1482;51.398;7.128;2024-03-02T06:49:07;2.63;;;2.43;;
2944;SDS011;1482;51.398;7.128;2024-03-02T06:51:35;3.40;;;2.80;;
2944;SDS011;1482;51.398;7.128;2024-03-02T06:54:01;5.33;;;3.47;;
2944;SDS011;1482;51.398;7.128;2024-03-02T06:56:26;5.03;;;2.50;;
2944;SDS011;1482;51.398;7.128;2024-03-02T06:58:52;3.60;;;2.77;;
2944;SDS011;1482;51.398;7.128;2024-03-02T07:01:17;4.07;;;3.47;;
2944;SDS011;1482;51.398;7.128;2024-03-02T07:03:43;5.93;;;4.37;;
2944;SDS011;1482;51.398;7.128;2024-03-02T07:06:09;5.70;;;2.90;;
2944;SDS011;1482;51.398;7.128;2024-03-02T07:08:34;4.23;;;2.87;;
2944;SDS011;1482;51.398;7.128;2024-03-02T07:11:00;6.97;;;2.90;;
2944;SDS011;1482;51.398;7.128;2024-03-02T07:13:25;5.10;;;2.50;;
2944;SDS011;1482;51.398;7.128;2024-03-02T07:15:51;4.60;;;2.67;;
2944;SDS011;1482;51.398;7.128;2024-03-02T07:18:32;5.80;;;2.93;;
2944;SDS011;1482;51.398;7.128;2024-03-02T07:21:06;4.83;;;2.87;;
2944;SDS011;1482;51.398;7.128;2024-03-02T07:23:32;3.30;;;2.40;;
2944;SDS011;1482;51.398;7.128;2024-03-02T07:25:57;3.87;;;2.30;;
2944;SDS011;1482;51.398;7.128;2024-03-02T07:28:24;4.20;;;2.77;;
2944;SDS011;1482;51.398;7.128;2024-03-02T07:31:00;3.57;;;2.63;;
2944;SDS011;1482;51.398;7.128;2024-03-02T07:33:29;9.73;;;3.20;;
2944;SDS011;1482;51.398;7.128;2024-03-02T07:35:55;4.90;;;4.47;;
2944;SDS011;1482;51.398;7.128;2024-03-02T07:38:21;4.30;;;3.90;;
2944;SDS011;1482;51.398;7.128;2024-03-02T07:40:47;7.40;;;6.70;;
2944;SDS011;1482;51.398;7.128;2024-03-02T07:43:17;5.97;;;5.50;;
2944;SDS011;1482;51.398;7.128;2024-03-02T07:45:43;9.30;;;8.50;;
2944;SDS011;1482;51.398;7.128;2024-03-02T07:48:08;8.20;;;7.60;;
2944;SDS011;1482;51.398;7.128;2024-03-02T07:50:34;6.70;;;6.10;;
2944;SDS011;1482;51.398;7.128;2024-03-02T07:53:00;3.30;;;3.00;;
2944;SDS011;1482;51.398;7.128;2024-03-02T07:55:26;4.60;;;2.77;;
2944;SDS011;1482;51.398;7.128;2024-03-02T07:57:52;2.97;;;2.70;;
2944;SDS011;1482;51.398;7.128;2024-03-02T08:00:17;3.87;;;1.97;;
2944;SDS011;1482;51.398;7.128;2024-03-02T08:02:43;2.80;;;2.60;;
2944;SDS011;1482;51.398;7.128;2024-03-02T08:05:09;2.97;;;2.63;;
2944;SDS011;1482;51.398;7.128;2024-03-02T08:07:34;4.20;;;2.30;;
2944;SDS011;1482;51.398;7.128;2024-03-02T08:10:00;3.50;;;3.20;;
2944;SDS011;1482;51.398;7.128;2024-03-02T08:12:26;4.73;;;3.30;;
2944;SDS011;1482;51.398;7.128;2024-03-02T08:14:51;5.87;;;4.80;;
2944;SDS011;1482;51.398;7.128;2024-03-02T08:17:17;11.37;;;3.33;;
2944;SDS011;1482;51.398;7.128;2024-03-02T08:19:42;3.47;;;2.50;;
2944;SDS011;1482;51.398;7.128;2024-03-02T08:22:09;3.53;;;2.60;;
2944;SDS011;1482;51.398;7.128;2024-03-02T08:24:35;3.00;;;2.47;;
2944;SDS011;1482;51.398;7.128;2024-03-02T08:27:01;7.33;;;2.53;;
2944;SDS011;1482;51.398;7.128;2024-03-02T08:29:26;4.13;;;2.50;;
2944;SDS011;1482;51.398;7.128;2024-03-02T08:31:52;3.53;;;2.27;;
2944;SDS011;1482;51.398;7.128;2024-03-02T08:34:18;4.80;;;2.17;;
2944;SDS011;1482;51.398;7.128;2024-03-02T08:36:44;2.30;;;2.10;;
2944;SDS011;1482;51.398;7.128;2024-03-02T08:39:11;2.90;;;1.77;;
2944;SDS011;1482;51.398;7.128;2024-03-02T08:41:40;2.30;;;1.97;;
2944;SDS011;1482;51.398;7.128;2024-03-02T08:44:09;3.60;;;2.37;;
2944;SDS011;1482;51.398;7.128;2024-03-02T08:46:35;2.57;;;2.00;;
2944;SDS011;1482;51.398;7.128;2024-03-02T08:49:01;3.67;;;1.97;;
2944;SDS011;1482;51.398;7.128;2024-03-02T08:51:27;2.13;;;1.93;;
2944;SDS011;1482;51.398;7.128;2024-03-02T08:53:52;2.97;;;1.80;;
2944;SDS011;1482;51.398;7.128;2024-03-02T08:56:17;2.10;;;1.90;;
2944;SDS011;1482;51.398;7.128;2024-03-02T08:58:45;2.60;;;1.90;;
2944;SDS011;1482;51.398;7.128;2024-03-02T09:01:11;1.80;;;1.50;;
2944;SDS011;1482;51.398;7.128;2024-03-02T09:03:36;2.50;;;2.07;;
2944;SDS011;1482;51.398;7.128;2024-03-02T09:06:02;2.40;;;1.60;;
2944;SDS011;1482;51.398;7.128;2024-03-02T09:08:28;1.90;;;1.60;;
2944;SDS011;1482;51.398;7.128;2024-03-02T09:10:54;1.90;;;1.60;;
2944;SDS011;1482;51.398;7.128;2024-03-02T09:13:20;2.77;;;2.23;;
2944;SDS011;1482;51.398;7.128;2024-03-02T09:15:47;2.27;;;1.80;;
2944;SDS011;1482;51.398;7.128;2024-03-02T09:18:12;5.40;;;2.20;;
2944;SDS011;1482;51.398;7.128;2024-03-02T09:20:38;2.90;;;1.70;;
2944;SDS011;1482;51.398;7.128;2024-03-02T09:23:04;1.93;;;1.73;;
2944;SDS011;1482;51.398;7.128;2024-03-02T09:25:29;3.07;;;1.80;;
2944;SDS011;1482;51.398;7.128;2024-03-02T09:27:55;2.53;;;1.63;;
2944;SDS011;1482;51.398;7.128;2024-03-02T09:30:20;2.33;;;1.77;;
2944;SDS011;1482;51.398;7.128;2024-03-02T09:32:46;2.30;;;1.40;;
2944;SDS011;1482;51.398;7.128;2024-03-02T09:35:11;4.50;;;1.90;;
2944;SDS011;1482;51.398;7.128;2024-03-02T09:37:37;2.30;;;1.53;;
2944;SDS011;1482;51.398;7.128;2024-03-02T09:40:03;2.07;;;1.70;;
2944;SDS011;1482;51.398;7.128;2024-03-02T09:42:29;2.13;;;1.40;;
2944;SDS011;1482;51.398;7.128;2024-03-02T09:44:55;2.10;;;1.60;;
2944;SDS011;1482;51.398;7.128;2024-03-02T09:47:22;2.23;;;1.40;;
2944;SDS011;1482;51.398;7.128;2024-03-02T09:49:47;2.17;;;1.40;;
2944;SDS011;1482;51.398;7.128;2024-03-02T09:52:13;1.50;;;1.37;;
2944;SDS011;1482;51.398;7.128;2024-03-02T09:54:39;1.80;;;1.60;;
2944;SDS011;1482;51.398;7.128;2024-03-02T09:57:05;2.17;;;1.33;;
2944;SDS011;1482;51.398;7.128;2024-03-02T09:59:30;4.20;;;2.00;;
2944;SDS011;1482;51.398;7.128;2024-03-02T10:01:59;2.10;;;1.23;;
2944;SDS011;1482;51.398;7.128;2024-03-02T10:04:27;2.67;;;2.00;;
2944;SDS011;1482;51.398;7.128;2024-03-02T10:07:12;1.87;;;1.57;;
2944;SDS011;1482;51.398;7.128;2024-03-02T10:09:38;1.83;;;1.70;;
2944;SDS011;1482;51.398;7.128;2024-03-02T10:12:04;3.60;;;1.50;;
2944;SDS011;1482;51.398;7.128;2024-03-02T10:14:31;2.03;;;1.67;;
2944;SDS011;1482;51.398;7.128;2024-03-02T10:17:01;2.07;;;1.60;;
2944;SDS011;1482;51.398;7.128;2024-03-02T10:19:28;2.00;;;1.80;;
2944;SDS011;1482;51.398;7.128;2024-03-02T10:21:57;3.67;;;1.73;;
2944;SDS011;1482;51.398;7.128;2024-03-02T10:24:24;1.67;;;1.30;;
2944;SDS011;1482;51.398;7.128;2024-03-02T10:26:50;2.13;;;1.53;;
2944;SDS011;1482;51.398;7.128;2024-03-02T10:29:17;2.20;;;1.43;;
2944;SDS011;1482;51.398;7.128;2024-03-02T10:31:43;2.40;;;1.30;;
2944;SDS011;1482;51.398;7.128;2024-03-02T10:34:12;1.80;;;1.40;;
2944;SDS011;1482;51.398;7.128;2024-03-02T10:36:42;2.47;;;1.60;;
2944;SDS011;1482;51.398;7.128;2024-03-02T10:39:08;2.63;;;1.53;;
2944;SDS011;1482;51.398;7.128;2024-03-02T10:41:35;1.93;;;1.40;;
2944;SDS011;1482;51.398;7.128;2024-03-02T10:44:02;3.70;;;1.80;;
2944;SDS011;1482;51.398;7.128;2024-03-02T10:46:29;1.80;;;1.70;;
2944;SDS011;1482;51.398;7.128;2024-03-02T10:48:56;3.00;;;1.70;;
2944;SDS011;1482;51.398;7.128;2024-03-02T10:51:25;2.30;;;1.30;;
2944;SDS011;1482;51.398;7.128;2024-03-02T10:53:52;1.77;;;1.67;;
2944;SDS011;1482;51.398;7.128;2024-03-02T10:56:22;2.20;;;1.50;;
2944;SDS011;1482;51.398;7.128;2024-03-02T10:59:03;2.00;;;1.83;;
2944;SDS011;1482;51.398;7.128;2024-03-02T11:01:35;10.30;;;1.50;;
2944;SDS011;1482;51.398;7.128;2024-03-02T11:04:04;2.57;;;1.10;;
2944;SDS011;1482;51.398;7.128;2024-03-02T11:06:33;2.03;;;1.50;;
2944;SDS011;1482;51.398;7.128;2024-03-02T11:09:03;1.77;;;1.30;;
2944;SDS011;1482;51.398;7.128;2024-03-02T11:11:33;1.50;;;1.37;;
2944;SDS011;1482;51.398;7.128;2024-03-02T11:14:01;1.70;;;0.90;;
2944;SDS011;1482;51.398;7.128;2024-03-02T11:16:36;2.60;;;1.43;;
2944;SDS011;1482;51.398;7.128;2024-03-02T11:19:13;1.40;;;1.30;;
2944;SDS011;1482;51.398;7.128;2024-03-02T11:21:40;1.47;;;1.37;;
2944;SDS011;1482;51.398;7.128;2024-03-02T11:26:46;2.67;;;1.30;;
2944;SDS011;1482;51.398;7.128;2024-03-02T11:32:04;3.00;;;1.93;;
2944;SDS011;1482;51.398;7.128;2024-03-02T11:34:47;1.60;;;1.27;;
2944;SDS011;1482;51.398;7.128;2024-03-02T11:37:14;3.20;;;0.90;;
2944;SDS011;1482;51.398;7.128;2024-03-02T11:39:44;1.97;;;1.10;;
2944;SDS011;1482;51.398;7.128;2024-03-02T11:42:11;5.20;;;1.17;;
2944;SDS011;1482;51.398;7.128;2024-03-02T11:44:39;6.47;;;1.40;;
2944;SDS011;1482;51.398;7.128;2024-03-02T11:47:06;2.73;;;1.37;;
2944;SDS011;1482;51.398;7.128;2024-03-02T11:49:43;2.90;;;1.40;;
2944;SDS011;1482;51.398;7.128;2024-03-02T11:52:13;3.43;;;1.33;;
2944;SDS011;1482;51.398;7.128;2024-03-02T11:54:41;1.37;;;1.20;;
2944;SDS011;1482;51.398;7.128;2024-03-02T11:57:12;2.10;;;1.20;;
2944;SDS011;1482;51.398;7.128;2024-03-02T11:59:39;2.17;;;1.50;;
2944;SDS011;1482;51.398;7.128;2024-03-02T12:02:05;1.53;;;1.00;;
2944;SDS011;1482;51.398;7.128;2024-03-02T12:04:31;2.73;;;1.70;;
2944;SDS011;1482;51.398;7.128;2024-03-02T12:06:58;1.70;;;1.40;;
2944;SDS011;1482;51.398;7.128;2024-03-02T12:09:25;1.40;;;1.30;;
2944;SDS011;1482;51.398;7.128;2024-03-02T12:12:06;2.57;;;1.07;;
2944;SDS011;1482;51.398;7.128;2024-03-02T12:14:33;1.40;;;1.27;;
2944;SDS011;1482;51.398;7.128;2024-03-02T12:17:01;1.83;;;1.23;;
2944;SDS011;1482;51.398;7.128;2024-03-02T12:19:27;1.40;;;1.00;;
2944;SDS011;1482;51.398;7.128;2024-03-02T12:21:54;2.00;;;1.37;;
2944;SDS011;1482;51.398;7.128;2024-03-02T12:24:21;5.80;;;1.33;;
2944;SDS011;1482;51.398;7.128;2024-03-02T12:26:47;1.20;;;1.10;;
2944;SDS011;1482;51.398;7.128;2024-03-02T12:29:17;1.63;;;1.10;;
2944;SDS011;1482;51.398;7.128;2024-03-02T12:31:44;1.50;;;1.20;;
2944;SDS011;1482;51.398;7.128;2024-03-02T12:34:13;2.00;;;1.80;;
2944;SDS011;1482;51.398;7.128;2024-03-02T12:36:40;1.73;;;1.20;;
2944;SDS011;1482;51.398;7.128;2024-03-02T12:39:06;1.83;;;1.30;;
2944;SDS011;1482;51.398;7.128;2024-03-02T12:41:36;2.80;;;1.10;;
2944;SDS011;1482;51.398;7.128;2024-03-02T12:44:04;1.17;;;1.00;;
2944;SDS011;1482;51.398;7.128;2024-03-02T12:46:31;1.07;;;0.90;;
2944;SDS011;1482;51.398;7.128;2024-03-02T12:48:57;1.40;;;1.17;;
2944;SDS011;1482;51.398;7.128;2024-03-02T12:51:24;1.83;;;1.10;;
2944;SDS011;1482;51.398;7.128;2024-03-02T12:54:08;3.93;;;1.10;;
2944;SDS011;1482;51.398;7.128;2024-03-02T12:56:35;1.20;;;0.93;;
2944;SDS011;1482;51.398;7.128;2024-03-02T12:59:02;2.00;;;1.80;;
2944;SDS011;1482;51.398;7.128;2024-03-02T13:01:29;1.30;;;0.97;;
2944;SDS011;1482;51.398;7.128;2024-03-02T13:03:56;1.40;;;1.27;;
2944;SDS011;1482;51.398;7.128;2024-03-02T13:06:23;2.37;;;1.10;;
2944;SDS011;1482;51.398;7.128;2024-03-02T13:08:52;1.30;;;1.00;;
2944;SDS011;1482;51.398;7.128;2024-03-02T13:11:17;2.33;;;1.17;;
2944;SDS011;1482;51.398;7.128;2024-03-02T13:13:44;1.20;;;0.93;;
2944;SDS011;1482;51.398;7.128;2024-03-02T13:16:10;1.17;;;0.97;;
2944;SDS011;1482;51.398;7.128;2024-03-02T13:18:36;2.23;;;1.10;;
2944;SDS011;1482;51.398;7.128;2024-03-02T13:21:03;1.60;;;1.10;;
2944;SDS011;1482;51.398;7.128;2024-03-02T13:23:29;2.13;;;1.30;;
2944;SDS011;1482;51.398;7.128;2024-03-02T13:25:56;2.17;;;1.00;;
2944;SDS011;1482;51.398;7.128;2024-03-02T13:28:23;1.40;;;1.00;;
2944;SDS011;1482;51.398;7.128;2024-03-02T13:30:49;2.43;;;1.00;;
2944;SDS011;1482;51.398;7.128;2024-03-02T13:33:14;2.87;;;1.23;;
2944;SDS011;1482;51.398;7.128;2024-03-02T13:35:40;1.43;;;1.10;;
2944;SDS011;1482;51.398;7.128;2024-03-02T13:38:05;1.40;;;0.80;;
2944;SDS011;1482;51.398;7.128;2024-03-02T13:40:31;1.40;;;1.03;;
2944;SDS011;1482;51.398;7.128;2024-03-02T13:43:00;1.47;;;1.00;;
2944;SDS011;1482;51.398;7.128;2024-03-02T13:45:27;1.43;;;0.97;;
2944;SDS011;1482;51.398;7.128;2024-03-02T13:47:52;1.50;;;0.93;;
2944;SDS011;1482;51.398;7.128;2024-03-02T13:50:18;1.10;;;0.90;;
2944;SDS011;1482;51.398;7.128;2024-03-02T13:52:44;2.00;;;1.00;;
2944;SDS011;1482;51.398;7.128;2024-03-02T13:55:10;1.83;;;0.90;;
2944;SDS011;1482;51.398;7.128;2024-03-02T13:57:36;2.90;;;1.00;;
2944;SDS011;1482;51.398;7.128;2024-03-02T14:00:01;1.07;;;0.87;;
2944;SDS011;1482;51.398;7.128;2024-03-02T14:02:28;4.73;;;1.20;;
2944;SDS011;1482;51.398;7.128;2024-03-02T14:04:53;1.20;;;0.80;;
2944;SDS011;1482;51.398;7.128;2024-03-02T14:07:19;1.40;;;1.17;;
2944;SDS011;1482;51.398;7.128;2024-03-02T14:09:45;1.73;;;1.00;;
2944;SDS011;1482;51.398;7.128;2024-03-02T14:12:11;1.93;;;1.10;;
2944;SDS011;1482;51.398;7.128;2024-03-02T14:14:38;1.47;;;1.10;;
2944;SDS011;1482;51.398;7.128;2024-03-02T14:17:04;1.20;;;0.80;;
2944;SDS011;1482;51.398;7.128;2024-03-02T14:19:31;2.80;;;1.00;;
2944;SDS011;1482;51.398;7.128;2024-03-02T14:21:57;2.40;;;0.80;;
2944;SDS011;1482;51.398;7.128;2024-03-02T14:24:23;1.40;;;1.00;;
2944;SDS011;1482;51.398;7.128;2024-03-02T14:26:50;3.53;;;0.83;;
2944;SDS011;1482;51.398;7.128;2024-03-02T14:29:17;1.77;;;0.90;;
2944;SDS011;1482;51.398;7.128;2024-03-02T14:31:43;1.23;;;0.83;;
2944;SDS011;1482;51.398;7.128;2024-03-02T14:34:09;2.30;;;0.93;;
2944;SDS011;1482;51.398;7.128;2024-03-02T14:36:34;2.03;;;1.00;;
2944;SDS011;1482;51.398;7.128;2024-03-02T14:39:00;1.33;;;0.80;;
2944;SDS011;1482;51.398;7.128;2024-03-02T14:41:26;1.20;;;0.80;;
2944;SDS011;1482;51.398;7.128;2024-03-02T14:43:51;2.20;;;1.47;;
2944;SDS011;1482;51.398;7.128;2024-03-02T14:46:17;1.70;;;1.30;;
2944;SDS011;1482;51.398;7.128;2024-03-02T14:48:43;1.13;;;0.83;;
2944;SDS011;1482;51.398;7.128;2024-03-02T14:51:10;3.90;;;1.73;;
2944;SDS011;1482;51.398;7.128;2024-03-02T14:53:35;1.10;;;0.80;;
2944;SDS011;1482;51.398;7.128;2024-03-02T14:56:02;1.87;;;1.60;;
2944;SDS011;1482;51.398;7.128;2024-03-02T14:58:29;2.27;;;1.10;;
2944;SDS011;1482;51.398;7.128;2024-03-02T15:00:54;3.37;;;1.00;;
2944;SDS011;1482;51.398;7.128;2024-03-02T15:03:20;2.23;;;1.10;;
2944;SDS011;1482;51.398;7.128;2024-03-02T15:05:46;1.20;;;0.90;;
2944;SDS011;1482;51.398;7.128;2024-03-02T15:08:12;1.97;;;0.93;;
2944;SDS011;1482;51.398;7.128;2024-03-02T15:10:37;1.47;;;1.20;;
2944;SDS011;1482;51.398;7.128;2024-03-02T15:13:03;6.83;;;1.70;;
2944;SDS011;1482;51.398;7.128;2024-03-02T15:15:28;1.60;;;1.50;;
2944;SDS011;1482;51.398;7.128;2024-03-02T15:17:54;5.23;;;1.73;;
2944;SDS011;1482;51.398;7.128;2024-03-02T15:20:19;2.50;;;1.73;;
2944;SDS011;1482;51.398;7.128;2024-03-02T15:22:46;2.80;;;1.57;;